createdAt,value
2018-03-04T00:01:58.622Z,49.20
2018-03-04T00:04:26.123Z,50.13
2018-03-04T00:06:53.651Z,51.33
2018-03-04T00:09:21.151Z,53.90
2018-03-04T00:11:49.413Z,52.10
2018-03-04T00:14:16.936Z,54.40
2018-03-04T00:16:44.437Z,52.57
2018-03-04T00:19:12.726Z,52.87
2018-03-04T00:21:40.994Z,52.40
2018-03-04T00:24:09.287Z,50.87
2018-03-04T00:26:36.790Z,52.30
2018-03-04T00:29:04.311Z,52.00
2018-03-04T00:31:31.810Z,52.10
2018-03-04T00:33:59.306Z,52.83
2018-03-04T00:36:27.600Z,52.10
2018-03-04T00:38:55.098Z,53.20
2018-03-04T00:41:22.618Z,52.07
2018-03-04T00:43:50.113Z,52.97
2018-03-04T00:46:17.638Z,54.07
2018-03-04T00:48:45.138Z,52.27
2018-03-04T00:51:12.663Z,50.90
2018-03-04T00:53:40.166Z,51.07
2018-03-04T00:56:07.667Z,53.73
2018-03-04T00:58:35.191Z,53.33
2018-03-04T01:01:02.693Z,50.77
2018-03-04T01:03:30.215Z,54.57
2018-03-04T01:05:57.717Z,54.67
2018-03-04T01:08:25.250Z,54.57
2018-03-04T01:10:53.518Z,53.63
2018-03-04T01:13:21.806Z,52.53
2018-03-04T01:15:49.311Z,52.67
2018-03-04T01:18:16.815Z,54.27
2018-03-04T01:20:45.106Z,51.40
2018-03-04T01:23:12.605Z,53.30
2018-03-04T01:25:40.131Z,54.60
2018-03-04T01:28:07.631Z,53.80
2018-03-04T01:30:35.153Z,53.93
2018-03-04T01:33:02.655Z,55.23
2018-03-04T01:35:30.170Z,53.60
2018-03-04T01:37:57.691Z,53.80
2018-03-04T01:40:25.959Z,53.30
2018-03-04T01:42:53.479Z,53.17
2018-03-04T01:45:20.978Z,52.57
2018-03-04T01:47:48.499Z,53.67
2018-03-04T01:50:15.998Z,52.40
2018-03-04T01:52:44.267Z,55.60
2018-03-04T01:55:11.786Z,52.80
2018-03-04T01:57:39.290Z,55.70
2018-03-04T02:00:07.586Z,53.10
2018-03-04T02:02:35.850Z,52.70
2018-03-04T02:05:04.142Z,50.90
2018-03-04T02:07:31.643Z,53.10
2018-03-04T02:09:59.142Z,51.83
2018-03-04T02:12:27.430Z,50.33
2018-03-04T02:14:55.694Z,52.93
2018-03-04T02:17:23.982Z,53.17
2018-03-04T02:19:52.251Z,52.57
2018-03-04T02:22:20.542Z,50.97
2018-03-04T02:24:48.042Z,52.50
2018-03-04T02:27:15.542Z,50.47
2018-03-04T02:29:43.833Z,52.40
2018-03-04T02:32:11.330Z,48.73
2018-03-04T02:34:38.852Z,51.00
2018-03-04T02:37:06.354Z,50.37
2018-03-04T02:39:33.883Z,51.40
2018-03-04T02:42:01.382Z,51.43
2018-03-04T02:44:28.886Z,51.10
2018-03-04T02:46:56.407Z,51.80
2018-03-04T02:49:23.922Z,51.80
2018-03-04T02:51:51.442Z,51.70
2018-03-04T02:54:19.707Z,53.40
2018-03-04T02:56:48.006Z,51.23
2018-03-04T02:59:16.277Z,52.20
2018-03-04T03:01:44.552Z,51.77
2018-03-04T03:04:12.842Z,50.43
2018-03-04T03:06:40.343Z,50.53
2018-03-04T03:09:07.871Z,52.90
2018-03-04T03:11:35.370Z,53.63
2018-03-04T03:14:02.894Z,51.60
2018-03-04T03:16:30.411Z,52.60
2018-03-04T03:18:57.910Z,52.20
2018-03-04T03:21:25.430Z,52.83
2018-03-04T03:23:53.700Z,53.77
2018-03-04T03:26:21.222Z,52.73
2018-03-04T03:28:48.722Z,53.30
2018-03-04T03:31:16.242Z,54.93
2018-03-04T03:33:43.746Z,52.87
2018-03-04T03:36:12.010Z,54.90
2018-03-04T03:38:39.538Z,53.90
2018-03-04T03:41:07.039Z,55.80
2018-03-04T03:43:35.331Z,56.90
2018-03-04T03:46:02.834Z,55.77
2018-03-04T03:48:30.373Z,57.00
2018-03-04T03:50:57.871Z,56.13
2018-03-04T03:53:25.370Z,53.70
2018-03-04T03:55:52.896Z,55.57
2018-03-04T03:58:21.902Z,54.73
2018-03-04T04:00:50.189Z,54.97
2018-03-04T04:03:18.454Z,55.10
2018-03-04T04:05:46.747Z,53.90
2018-03-04T04:08:14.246Z,53.07
2018-03-04T04:10:41.750Z,53.20
2018-03-04T04:13:10.039Z,53.27
2018-03-04T04:15:37.538Z,54.63
2018-03-04T04:18:05.066Z,53.10
2018-03-04T04:20:32.565Z,55.20
2018-03-04T04:23:00.088Z,54.17
2018-03-04T04:25:27.590Z,56.80
2018-03-04T04:27:55.091Z,54.90
2018-03-04T04:30:22.622Z,53.93
2018-03-04T04:32:50.121Z,56.20
2018-03-04T04:35:17.662Z,57.60
2018-03-04T04:37:45.936Z,53.63
2018-03-04T04:40:14.226Z,57.37
2018-03-04T04:42:41.731Z,56.00
2018-03-04T04:45:09.230Z,55.60
2018-03-04T04:47:37.518Z,55.10
2018-03-04T04:50:05.019Z,54.00
2018-03-04T04:52:32.543Z,54.70
2018-03-04T04:55:00.046Z,55.07
2018-03-04T04:57:27.566Z,55.77
2018-03-04T04:59:55.062Z,53.30
2018-03-04T05:02:22.557Z,54.23
2018-03-04T05:04:50.842Z,56.67
2018-03-04T05:07:18.338Z,55.97
2018-03-04T05:09:45.858Z,56.00
2018-03-04T05:12:13.362Z,56.00
2018-03-04T05:14:40.887Z,56.83
2018-03-04T05:17:08.386Z,56.97
2018-03-04T05:19:35.882Z,56.87
2018-03-04T05:22:04.172Z,54.53
2018-03-04T05:24:31.678Z,54.97
2018-03-04T05:26:59.202Z,55.60
2018-03-04T05:29:26.708Z,55.10
2018-03-04T05:31:54.234Z,57.30
2018-03-04T05:34:21.737Z,53.93
2018-03-04T05:36:49.998Z,52.50
2018-03-04T05:39:17.518Z,53.20
2018-03-04T05:41:45.014Z,55.57
2018-03-04T05:44:12.539Z,52.90
2018-03-04T05:46:40.039Z,53.70
2018-03-04T05:49:07.561Z,52.97
2018-03-04T05:51:35.065Z,56.47
2018-03-04T05:54:03.331Z,56.17
2018-03-04T05:56:30.850Z,55.50
2018-03-04T05:58:58.355Z,54.47
2018-03-04T06:01:25.878Z,54.60
2018-03-04T06:03:53.377Z,55.13
2018-03-04T06:06:21.758Z,58.53
2018-03-04T06:08:50.024Z,55.80
2018-03-04T06:11:18.285Z,55.27
2018-03-04T06:13:45.807Z,56.20
2018-03-04T06:16:13.306Z,53.43
2018-03-04T06:18:40.826Z,57.00
2018-03-04T06:21:08.322Z,55.63
2018-03-04T06:23:35.846Z,54.27
2018-03-04T06:26:03.342Z,56.23
2018-03-04T06:28:30.843Z,54.50
2018-03-04T06:30:58.366Z,54.37
2018-03-04T06:33:25.905Z,54.07
2018-03-04T06:35:53.414Z,53.43
2018-03-04T06:38:20.909Z,51.77
2018-03-04T06:40:48.434Z,54.57
2018-03-04T06:43:15.939Z,51.47
2018-03-04T06:45:44.959Z,54.80
2018-03-04T06:48:13.251Z,53.17
2018-03-04T06:50:41.518Z,52.10
2018-03-04T06:53:09.809Z,53.00
2018-03-04T06:55:37.305Z,52.13
2018-03-04T06:58:04.831Z,54.07
2018-03-04T07:00:32.331Z,53.97
2018-03-04T07:02:59.830Z,52.90
2018-03-04T07:05:28.118Z,50.87
2018-03-04T07:07:55.619Z,51.07
2018-03-04T07:10:23.143Z,54.07
2018-03-04T07:12:50.641Z,53.20
2018-03-04T07:15:18.167Z,52.50
2018-03-04T07:17:45.670Z,55.50
2018-03-04T07:20:13.175Z,50.87
2018-03-04T07:22:40.699Z,53.33
2018-03-04T07:25:08.201Z,60.63
2018-03-04T07:27:35.718Z,94.63
2018-03-04T07:30:03.998Z,54.97
2018-03-04T07:32:32.290Z,51.77
2018-03-04T07:35:00.564Z,54.80
2018-03-04T07:37:28.830Z,52.97
2018-03-04T07:39:57.707Z,54.30
2018-03-04T07:42:25.206Z,52.80
2018-03-04T07:44:52.733Z,56.13
2018-03-04T07:47:21.019Z,62.10
2018-03-04T07:49:48.559Z,59.07
2018-03-04T07:52:16.059Z,54.97
2018-03-04T07:54:43.558Z,57.57
2018-03-04T07:57:11.073Z,55.37
2018-03-04T07:59:38.566Z,54.57
2018-03-04T08:02:06.086Z,56.50
2018-03-04T08:04:33.588Z,52.70
2018-03-04T08:07:01.115Z,54.33
2018-03-04T08:09:28.614Z,54.70
2018-03-04T08:11:56.106Z,53.10
2018-03-04T08:14:24.398Z,53.53
2018-03-04T08:16:51.902Z,51.90
2018-03-04T08:19:19.430Z,52.80
2018-03-04T08:21:46.930Z,56.70
2018-03-04T08:27:30.236Z,53.27
2018-03-04T08:29:57.758Z,52.10
2018-03-04T08:32:26.026Z,55.40
2018-03-04T08:34:53.526Z,53.70
2018-03-04T08:37:21.066Z,51.70
2018-03-04T08:39:49.331Z,54.53
2018-03-04T08:42:17.615Z,52.80
2018-03-04T08:44:45.878Z,54.80
2018-03-04T08:47:14.166Z,53.70
2018-03-04T08:49:42.430Z,54.13
2018-03-04T08:52:10.689Z,53.47
2018-03-04T08:54:38.210Z,55.50
2018-03-04T08:57:05.710Z,52.93
2018-03-04T08:59:33.230Z,54.57
2018-03-04T09:02:00.726Z,54.00
2018-03-04T09:04:28.249Z,53.10
2018-03-04T09:06:55.746Z,56.43
2018-03-04T09:09:23.242Z,54.30
2018-03-04T09:11:50.763Z,56.07
2018-03-04T09:14:18.273Z,54.90
2018-03-04T09:16:45.798Z,58.60
2018-03-04T09:19:14.070Z,59.10
2018-03-04T09:21:42.362Z,55.90
2018-03-04T09:24:10.630Z,59.00
2018-03-04T09:26:38.903Z,57.00
2018-03-04T09:29:07.194Z,57.73
2018-03-04T09:31:34.694Z,58.40
2018-03-04T09:34:02.222Z,59.07
2018-03-04T09:36:29.730Z,58.50
2018-03-04T09:38:57.234Z,58.27
2018-03-04T09:41:24.762Z,59.50
2018-03-04T09:43:52.266Z,57.37
2018-03-04T09:46:19.795Z,57.90
2018-03-04T09:48:48.058Z,59.20
2018-03-04T09:51:16.325Z,57.47
2018-03-04T09:53:44.621Z,60.20
2018-03-04T09:56:12.895Z,56.53
2018-03-04T09:58:41.186Z,59.30
2018-03-04T10:01:08.689Z,58.23
2018-03-04T10:03:36.189Z,57.87
2018-03-04T10:06:04.482Z,58.70
2018-03-04T10:08:31.990Z,57.60
2018-03-04T10:10:59.514Z,58.20
2018-03-04T10:13:27.015Z,59.73
2018-03-04T10:15:54.518Z,58.37
2018-03-04T10:18:22.048Z,56.30
2018-03-04T10:20:49.551Z,57.33
2018-03-04T10:23:17.075Z,58.00
2018-03-04T10:25:45.346Z,58.07
2018-03-04T10:28:13.614Z,59.90
2018-03-04T10:30:41.142Z,57.60
2018-03-04T10:33:08.642Z,59.23
2018-03-04T10:35:36.930Z,57.50
2018-03-04T10:38:05.193Z,58.33
2018-03-04T10:40:33.486Z,56.70
2018-03-04T10:43:00.986Z,55.80
2018-03-04T10:45:28.487Z,55.07
2018-03-04T10:47:56.780Z,54.07
2018-03-04T10:50:24.282Z,55.10
2018-03-04T10:52:51.809Z,56.07
2018-03-04T10:55:19.322Z,53.23
2018-03-04T10:57:46.858Z,52.73
2018-03-04T11:00:14.367Z,54.47
2018-03-04T11:02:42.658Z,56.80
2018-03-04T11:05:10.177Z,52.63
2018-03-04T11:07:37.704Z,54.37
2018-03-04T11:10:05.210Z,56.93
2018-03-04T11:12:33.478Z,53.60
2018-03-04T11:15:00.998Z,53.90
2018-03-04T11:17:28.507Z,53.83
2018-03-04T11:19:56.030Z,52.27
2018-03-04T11:22:23.529Z,53.67
2018-03-04T11:24:51.821Z,55.97
2018-03-04T11:27:19.321Z,54.63
2018-03-04T11:29:46.818Z,53.30
2018-03-04T11:32:15.106Z,52.43
2018-03-04T11:34:42.610Z,49.60
2018-03-04T11:37:10.142Z,49.60
2018-03-04T11:39:37.647Z,49.90
2018-03-04T11:42:05.172Z,51.17
2018-03-04T11:44:32.671Z,49.27
2018-03-04T11:47:00.171Z,49.40
2018-03-04T11:49:27.689Z,48.60
2018-03-04T11:51:55.191Z,45.50
2018-03-04T11:54:22.716Z,49.27
2018-03-04T11:56:50.982Z,47.43
2018-03-04T11:59:18.515Z,43.93
2018-03-04T12:01:46.014Z,44.20
2018-03-04T12:04:14.285Z,45.00
2018-03-04T12:06:42.580Z,44.20
2018-03-04T12:09:10.082Z,44.03
2018-03-04T12:11:37.602Z,48.33
2018-03-04T12:14:05.098Z,44.30
2018-03-04T12:16:32.619Z,45.70
2018-03-04T12:19:00.122Z,44.70
2018-03-04T12:21:27.621Z,47.57
2018-03-04T12:23:55.925Z,44.97
2018-03-04T12:26:23.431Z,45.10
2018-03-04T12:28:50.955Z,46.10
2018-03-04T12:31:18.453Z,44.80
2018-03-04T12:33:45.973Z,43.33
2018-03-04T12:36:13.470Z,45.47
2018-03-04T12:38:40.974Z,44.73
2018-03-04T12:41:08.494Z,43.97
2018-03-04T12:43:36.758Z,43.63
2018-03-04T12:46:05.050Z,41.77
2018-03-04T12:48:33.314Z,41.60
2018-03-04T12:51:00.838Z,41.47
2018-03-04T12:53:28.338Z,42.23
2018-03-04T12:55:56.606Z,43.00
2018-03-04T12:58:24.130Z,42.37
2018-03-04T13:00:51.638Z,42.17
2018-03-04T13:03:19.925Z,41.70
2018-03-04T13:05:48.191Z,41.53
2018-03-04T13:08:16.477Z,39.90
2018-03-04T13:10:43.975Z,40.87
2018-03-04T13:13:11.474Z,39.77
2018-03-04T13:15:39.047Z,41.27
2018-03-04T13:18:06.525Z,38.43
2018-03-04T13:20:34.046Z,38.07
2018-03-04T13:23:01.547Z,38.07
2018-03-04T13:25:29.071Z,38.50
2018-03-04T13:27:56.570Z,39.20
2018-03-04T13:30:24.074Z,35.90
2018-03-04T13:32:51.600Z,38.57
2018-03-04T13:35:19.102Z,36.67
2018-03-04T13:37:46.627Z,36.43
2018-03-04T13:40:14.133Z,35.97
2018-03-04T13:42:42.426Z,38.50
2018-03-04T13:45:09.926Z,39.00
2018-03-04T13:47:37.427Z,37.67
2018-03-04T13:50:05.714Z,38.70
2018-03-04T13:52:33.214Z,37.50
2018-03-04T13:55:00.765Z,35.83
2018-03-04T13:57:28.259Z,115.33
2018-03-04T13:59:56.567Z,37.10
2018-03-04T14:02:24.070Z,38.40
2018-03-04T14:04:51.589Z,35.53
2018-03-04T14:07:19.118Z,35.10
2018-03-04T14:09:47.386Z,34.17
2018-03-04T14:12:14.910Z,35.90
2018-03-04T14:14:42.418Z,34.50
2018-03-04T14:17:10.711Z,34.30
2018-03-04T14:19:38.974Z,34.30
2018-03-04T14:22:07.238Z,34.17
2018-03-04T14:24:34.762Z,46.13
2018-03-04T14:27:02.265Z,35.33
2018-03-04T14:29:30.546Z,33.50
2018-03-04T14:31:58.818Z,34.10
2018-03-04T14:34:27.106Z,34.87
2018-03-04T14:36:55.420Z,32.47
2018-03-04T14:39:22.898Z,34.90
2018-03-04T14:41:50.426Z,34.87
2018-03-04T14:44:17.925Z,33.50
2018-03-04T14:46:45.449Z,35.30
2018-03-04T14:49:12.950Z,34.93
2018-03-04T14:51:41.994Z,36.63
2018-03-04T14:54:09.495Z,33.97
2018-03-04T14:56:36.993Z,35.60
2018-03-04T14:59:04.513Z,35.23
2018-03-04T15:01:32.015Z,34.77
2018-03-04T15:03:59.534Z,36.23
2018-03-04T15:06:27.034Z,34.83
2018-03-04T15:08:54.558Z,37.83
2018-03-04T15:11:22.058Z,59.10
2018-03-04T15:13:49.562Z,52.90
2018-03-04T15:16:17.086Z,34.90
2018-03-04T15:18:44.581Z,37.07
2018-03-04T15:21:12.101Z,37.20
2018-03-04T15:23:39.598Z,36.20
2018-03-04T15:26:07.126Z,38.07
2018-03-04T15:28:34.621Z,36.40
2018-03-04T15:31:02.123Z,37.03
2018-03-04T15:33:29.647Z,35.00
2018-03-04T15:35:57.150Z,39.00
2018-03-04T15:38:24.674Z,35.83
2018-03-04T15:40:52.938Z,34.83
2018-03-04T15:43:20.516Z,35.57
2018-03-04T15:45:47.982Z,35.97
2018-03-04T15:48:15.483Z,35.60
2018-03-04T15:50:43.010Z,35.30
2018-03-04T15:53:10.513Z,35.90
2018-03-04T15:55:38.034Z,35.80
2018-03-04T15:58:05.534Z,35.60
2018-03-04T16:00:33.059Z,35.30
2018-03-04T16:03:00.558Z,33.37
2018-03-04T16:05:28.061Z,32.47
2018-03-04T16:07:55.586Z,34.47
2018-03-04T16:10:23.086Z,33.50
2018-03-04T16:12:50.607Z,34.13
2018-03-04T16:15:18.878Z,33.33
2018-03-04T16:17:47.165Z,32.70
2018-03-04T16:20:15.430Z,33.57
2018-03-04T16:22:43.703Z,33.70
2018-03-04T16:25:11.994Z,33.23
2018-03-04T16:27:40.250Z,36.37
2018-03-04T16:30:07.773Z,33.23
2018-03-04T16:32:35.266Z,35.13
2018-03-04T16:35:02.786Z,33.10
2018-03-04T16:37:30.282Z,31.80
2018-03-04T16:39:58.526Z,31.70
2018-03-04T16:42:26.051Z,30.77
2018-03-04T16:44:53.546Z,30.83
2018-03-04T16:47:21.062Z,30.40
2018-03-04T16:49:49.318Z,31.00
2018-03-04T16:52:17.619Z,31.00
2018-03-04T16:54:45.129Z,31.67
2018-03-04T16:57:12.630Z,30.63
2018-03-04T16:59:40.916Z,28.97
2018-03-04T17:02:08.410Z,28.43
2018-03-04T17:04:35.936Z,29.67
2018-03-04T17:07:03.444Z,29.80
2018-03-04T17:09:30.962Z,27.50
2018-03-04T17:11:58.458Z,28.47
2018-03-04T17:14:25.960Z,27.97
2018-03-04T17:16:54.238Z,27.67
2018-03-04T17:19:21.734Z,28.90
2018-03-04T17:21:49.250Z,27.50
2018-03-04T17:24:17.513Z,26.17
2018-03-04T17:26:45.798Z,26.80
2018-03-04T17:29:14.056Z,27.87
2018-03-04T17:31:41.555Z,27.23
2018-03-04T17:34:09.102Z,26.40
2018-03-04T17:36:36.598Z,27.20
2018-03-04T17:39:04.135Z,33.77
2018-03-04T17:41:31.634Z,30.23
2018-03-04T17:43:59.153Z,28.80
2018-03-04T17:46:26.650Z,29.03
2018-03-04T17:48:54.146Z,29.27
2018-03-04T17:51:22.429Z,31.43
2018-03-04T17:53:49.930Z,31.50
2018-03-04T17:56:17.450Z,32.13
2018-03-04T17:58:44.942Z,31.53
2018-03-04T18:01:12.462Z,32.30
2018-03-04T18:03:39.960Z,31.37
2018-03-04T18:06:07.469Z,31.70
2018-03-04T18:08:35.754Z,30.63
2018-03-04T18:11:04.014Z,30.70
2018-03-04T18:13:32.299Z,29.20
2018-03-04T18:16:00.578Z,30.53
2018-03-04T18:18:28.098Z,31.17
2018-03-04T18:20:55.641Z,30.53
2018-03-04T18:23:23.118Z,31.27
2018-03-04T18:25:50.634Z,31.37
2018-03-04T18:28:18.134Z,29.10
2018-03-04T18:30:45.650Z,30.23
2018-03-04T18:33:13.146Z,29.27
2018-03-04T18:35:40.685Z,28.47
2018-03-04T18:38:08.182Z,29.80
2018-03-04T18:40:35.679Z,28.47
2018-03-04T18:43:03.198Z,30.20
2018-03-04T18:45:30.694Z,28.20
2018-03-04T18:47:58.207Z,29.33
2018-03-04T18:50:25.697Z,27.87
2018-03-04T18:52:53.982Z,30.07
2018-03-04T18:55:21.478Z,30.87
2018-03-04T18:57:48.976Z,29.90
2018-03-04T19:00:17.257Z,29.17
2018-03-04T19:02:45.518Z,28.73
2018-03-04T19:05:13.034Z,29.63
2018-03-04T19:07:40.530Z,30.80
2018-03-04T19:10:08.059Z,27.40
2018-03-04T19:12:35.554Z,27.77
2018-03-04T19:15:04.559Z,29.43
2018-03-04T19:17:32.845Z,29.00
2018-03-04T19:20:01.102Z,29.07
2018-03-04T19:22:28.628Z,29.93
2018-03-04T19:24:56.131Z,27.50
2018-03-04T19:27:24.431Z,28.83
2018-03-04T19:29:51.925Z,28.63
2018-03-04T19:32:19.418Z,28.47
2018-03-04T19:34:47.710Z,28.63
2018-03-04T19:37:15.976Z,30.30
2018-03-04T19:39:44.258Z,31.17
2018-03-04T19:42:12.522Z,30.60
2018-03-04T19:44:40.811Z,30.20
2018-03-04T19:47:09.067Z,30.13
2018-03-04T19:49:36.567Z,30.50
2018-03-04T19:52:04.134Z,29.67
2018-03-04T19:54:31.635Z,31.27
2018-03-04T19:56:59.158Z,30.10
2018-03-04T19:59:26.657Z,31.30
2018-03-04T20:01:54.181Z,30.27
2018-03-04T20:04:21.680Z,29.93
2018-03-04T20:06:49.946Z,29.77
2018-03-04T20:09:17.471Z,29.77
2018-03-04T20:11:44.970Z,29.90
2018-03-04T20:14:12.490Z,30.73
2018-03-04T20:16:39.986Z,31.00
2018-03-04T20:19:07.526Z,30.33
2018-03-04T20:21:35.033Z,28.70
2018-03-04T20:24:02.531Z,29.57
2018-03-04T20:26:30.056Z,30.93
2018-03-04T20:28:57.559Z,29.43
2018-03-04T20:31:25.079Z,29.83
2018-03-04T20:33:52.569Z,30.13
2018-03-04T20:36:20.097Z,32.17
2018-03-04T20:38:47.598Z,29.67
2018-03-04T20:41:15.090Z,28.60
2018-03-04T20:43:43.370Z,28.40
2018-03-04T20:46:11.630Z,28.70
2018-03-04T20:48:39.915Z,28.27
2018-03-04T20:51:08.178Z,27.40
2018-03-04T20:53:35.693Z,29.03
2018-03-04T20:56:03.186Z,27.27
2018-03-04T20:58:30.678Z,32.33
2018-03-04T21:00:58.199Z,36.73
2018-03-04T21:03:25.690Z,26.27
2018-03-04T21:05:53.978Z,26.33
2018-03-04T21:08:21.478Z,26.73
2018-03-04T21:10:48.995Z,25.37
2018-03-04T21:13:16.491Z,26.47
2018-03-04T21:15:43.985Z,25.80
2018-03-04T21:18:12.266Z,26.27
2018-03-04T21:20:40.521Z,25.90
2018-03-04T21:23:08.045Z,24.83
2018-03-04T21:25:35.542Z,25.27
2018-03-04T21:28:03.062Z,24.47
2018-03-04T21:30:30.560Z,24.63
2018-03-04T21:32:58.834Z,25.20
2018-03-04T21:35:26.354Z,25.10
2018-03-04T21:37:53.858Z,24.97
2018-03-04T21:40:21.385Z,25.77
2018-03-04T21:42:48.873Z,25.40
2018-03-04T21:45:16.395Z,24.90
2018-03-04T21:47:43.896Z,26.57
2018-03-04T21:50:12.167Z,25.47
2018-03-04T21:52:41.189Z,25.40
2018-03-04T21:55:08.702Z,24.50
2018-03-04T21:57:36.218Z,25.43
2018-03-04T22:00:03.743Z,27.73
2018-03-04T22:02:32.034Z,27.53
2018-03-04T22:05:00.293Z,26.40
2018-03-04T22:07:27.791Z,28.00
2018-03-04T22:09:55.326Z,30.00
2018-03-04T22:12:23.590Z,28.80
2018-03-04T22:14:51.875Z,30.40
2018-03-04T22:17:20.134Z,28.83
2018-03-04T22:19:47.650Z,26.47
2018-03-04T22:22:15.142Z,26.83
2018-03-04T22:24:42.639Z,27.30
2018-03-04T22:27:10.158Z,25.73
2018-03-04T22:29:37.658Z,37.23
2018-03-04T22:32:05.174Z,35.63
2018-03-04T22:34:32.669Z,25.83
2018-03-04T22:37:00.195Z,25.50
2018-03-04T22:39:27.686Z,25.93
2018-03-04T22:41:55.942Z,24.47
2018-03-04T22:44:24.229Z,25.53
2018-03-04T22:46:52.494Z,23.80
2018-03-04T22:49:20.777Z,23.83
2018-03-04T22:51:49.048Z,23.80
2018-03-04T22:54:17.338Z,24.53
2018-03-04T22:56:45.660Z,24.33
2018-03-04T22:59:13.159Z,25.27
2018-03-04T23:01:41.450Z,25.03
2018-03-04T23:04:09.706Z,23.60
2018-03-04T23:06:37.221Z,25.60
2018-03-04T23:09:05.475Z,23.40
2018-03-04T23:11:32.990Z,24.17
2018-03-04T23:14:00.485Z,24.40
2018-03-04T23:16:27.998Z,24.27
2018-03-04T23:18:55.515Z,24.63
2018-03-04T23:21:23.011Z,24.90
2018-03-04T23:23:50.531Z,25.30
2018-03-04T23:26:18.030Z,24.87
2018-03-04T23:28:45.550Z,25.50
2018-03-04T23:31:13.046Z,23.53
2018-03-04T23:33:40.543Z,24.17
2018-03-04T23:36:08.831Z,24.53
2018-03-04T23:38:36.330Z,25.93
2018-03-04T23:41:03.858Z,24.20
2018-03-04T23:43:31.358Z,23.33
2018-03-04T23:45:58.878Z,23.97
2018-03-04T23:48:26.375Z,24.87
2018-03-04T23:50:53.875Z,24.13
2018-03-04T23:53:21.399Z,25.10
2018-03-04T23:55:48.894Z,24.90
2018-03-04T23:58:16.414Z,26.97
